createdAt,value
2023-10-23T00:00:08.682Z,40.30
2023-10-23T00:06:33.439Z,38.70
2023-10-23T00:11:55.538Z,40.30
2023-10-23T00:16:57.803Z,34.30
2023-10-23T00:21:59.998Z,40.80
2023-10-23T00:27:13.168Z,38.20
2023-10-23T00:32:15.352Z,33.60
2023-10-23T00:38:17.117Z,32.90
2023-10-23T00:44:38.941Z,35.70
2023-10-23T00:51:01.020Z,38.20
2023-10-23T00:57:22.894Z,39.50
2023-10-23T01:03:44.686Z,38.90
2023-10-23T01:09:07.423Z,38.30
2023-10-23T01:14:37.345Z,34.60
2023-10-23T01:19:39.630Z,32.50
2023-10-23T01:24:44.635Z,34.50
2023-10-23T01:29:47.401Z,32.30
2023-10-23T01:35:49.290Z,39.10
2023-10-23T01:42:11.242Z,35.40
2023-10-23T01:48:33.311Z,36.50
2023-10-23T01:54:55.286Z,44.80
2023-10-23T02:01:17.200Z,35.80
2023-10-23T02:07:39.164Z,36.10
2023-10-23T02:13:01.087Z,37.60
2023-10-23T02:18:03.174Z,35.60
2023-10-23T02:24:05.196Z,39.00
2023-10-23T02:30:06.931Z,37.20
2023-10-23T02:35:10.044Z,37.20
2023-10-23T02:41:12.107Z,37.70
2023-10-23T02:47:33.895Z,35.70
2023-10-23T02:53:55.747Z,34.60
2023-10-23T03:00:17.557Z,37.00
2023-10-23T03:05:40.644Z,31.90
2023-10-23T03:10:43.522Z,32.00
2023-10-23T03:16:45.393Z,34.20
2023-10-23T03:22:07.944Z,33.70
2023-10-23T03:28:09.789Z,31.20
2023-10-23T03:34:31.674Z,26.70
2023-10-23T03:40:54.099Z,28.20
2023-10-23T03:46:17.710Z,32.10
2023-10-23T03:52:20.021Z,28.60
2023-10-23T03:57:42.673Z,34.40
2023-10-23T04:02:45.107Z,36.30
2023-10-23T04:07:47.611Z,40.50
2023-10-23T04:12:50.008Z,41.90
2023-10-23T04:17:52.026Z,39.10
2023-10-23T04:22:54.341Z,41.90
2023-10-23T04:27:56.907Z,40.40
2023-10-23T04:33:00.672Z,38.20
2023-10-23T04:38:03.827Z,39.50
2023-10-23T04:43:06.061Z,36.30
2023-10-23T04:48:08.230Z,48.10
2023-10-23T04:53:10.325Z,37.40
2023-10-23T04:58:12.331Z,43.70
2023-10-23T05:03:14.646Z,37.80
2023-10-23T05:08:16.885Z,35.20
2023-10-23T05:13:18.980Z,37.80
2023-10-23T05:18:20.984Z,37.10
2023-10-23T05:23:23.142Z,41.00
2023-10-23T05:28:26.669Z,32.30
2023-10-23T05:33:28.973Z,34.00
2023-10-23T05:39:30.836Z,37.70
2023-10-23T05:44:52.967Z,38.50
2023-10-23T05:49:55.001Z,31.50
2023-10-23T05:54:57.362Z,34.70
2023-10-23T05:59:59.709Z,35.10
2023-10-23T06:05:01.757Z,33.40
2023-10-23T06:10:05.397Z,38.80
2023-10-23T06:15:11.518Z,35.40
2023-10-23T06:20:13.649Z,39.10
2023-10-23T06:25:15.743Z,41.00
2023-10-23T06:30:17.761Z,39.40
2023-10-23T06:35:19.810Z,38.70
2023-10-23T06:40:22.043Z,36.80
2023-10-23T06:45:25.915Z,41.00
2023-10-23T06:50:35.992Z,36.20
2023-10-23T06:55:38.193Z,35.80
2023-10-23T07:00:40.496Z,31.10
2023-10-23T07:05:42.548Z,32.10
2023-10-23T07:10:44.888Z,39.20
2023-10-23T07:15:47.193Z,42.30
2023-10-23T07:21:02.447Z,34.60
2023-10-23T07:26:11.857Z,39.70
2023-10-23T07:31:14.852Z,35.10
2023-10-23T07:36:17.381Z,33.60
2023-10-23T07:41:19.720Z,36.60
2023-10-23T07:46:22.074Z,36.60
2023-10-23T07:51:24.192Z,33.10
2023-10-23T07:56:26.568Z,42.40
2023-10-23T08:01:29.091Z,34.10
2023-10-23T08:06:31.777Z,35.90
2023-10-23T08:11:33.940Z,33.70
2023-10-23T08:16:36.046Z,39.80
2023-10-23T08:21:37.961Z,42.00
2023-10-23T08:26:41.065Z,42.40
2023-10-23T08:31:43.366Z,35.70
2023-10-23T08:36:45.435Z,38.90
2023-10-23T08:41:49.757Z,28.90
2023-10-23T08:46:52.133Z,33.20
2023-10-23T08:51:55.285Z,30.30
2023-10-23T08:57:00.463Z,31.10
2023-10-23T09:02:02.802Z,30.10
2023-10-23T09:07:05.223Z,25.70
2023-10-23T09:12:07.813Z,27.20
2023-10-23T09:17:10.158Z,30.50
2023-10-23T09:22:12.531Z,25.60
2023-10-23T09:27:14.546Z,26.90
2023-10-23T09:32:17.024Z,25.10
2023-10-23T09:37:19.592Z,19.00
2023-10-23T09:42:32.529Z,23.30
2023-10-23T09:47:36.677Z,26.50
2023-10-23T09:52:40.802Z,22.60
2023-10-23T09:57:49.961Z,21.60
2023-10-23T10:02:55.820Z,23.10
2023-10-23T10:08:08.449Z,16.90
2023-10-23T10:13:14.757Z,17.80
2023-10-23T10:18:17.863Z,18.10
2023-10-23T10:23:20.973Z,14.40
2023-10-23T10:28:27.846Z,17.20
2023-10-23T10:34:22.767Z,15.60
2023-10-23T10:38:55.354Z,18.00
2023-10-23T10:43:57.994Z,15.80
2023-10-23T10:49:00.170Z,13.80
2023-10-23T10:54:12.748Z,15.80
2023-10-23T10:59:15.097Z,14.40
2023-10-23T11:04:17.711Z,16.00
2023-10-23T11:09:23.000Z,15.80
2023-10-23T11:14:26.226Z,14.70
2023-10-23T11:19:28.951Z,12.30
2023-10-23T11:24:31.607Z,22.40
2023-10-23T11:29:49.622Z,11.90
2023-10-23T11:34:51.677Z,12.70
2023-10-23T11:39:53.702Z,11.90
2023-10-23T11:44:58.680Z,9.20
2023-10-23T11:50:01.408Z,14.20
2023-10-23T11:55:07.753Z,5.60
2023-10-23T12:00:13.337Z,9.10
2023-10-23T12:05:20.986Z,8.70
2023-10-23T12:10:28.691Z,7.50
2023-10-23T12:15:30.883Z,9.10
2023-10-23T12:20:34.206Z,6.20
2023-10-23T12:25:36.348Z,7.90
2023-10-23T12:30:38.558Z,5.50
2023-10-23T12:35:41.863Z,8.90
2023-10-23T12:40:45.079Z,9.60
2023-10-23T12:45:48.349Z,12.00
2023-10-23T12:50:50.695Z,8.80
2023-10-23T12:55:53.068Z,7.90
2023-10-23T13:00:55.746Z,11.80
2023-10-23T13:05:58.028Z,4.00
2023-10-23T13:11:00.790Z,10.80
2023-10-23T13:16:03.009Z,10.20
2023-10-23T13:21:33.550Z,10.00
2023-10-23T13:26:30.357Z,7.00
2023-10-23T13:31:32.697Z,8.80
2023-10-23T13:36:35.030Z,11.00
2023-10-23T13:41:37.515Z,9.00
2023-10-23T13:46:40.100Z,11.20
2023-10-23T13:51:42.209Z,3.50
2023-10-23T13:56:46.764Z,7.60
2023-10-23T14:01:49.086Z,7.40
2023-10-23T14:06:51.355Z,14.00
2023-10-23T14:12:00.841Z,7.10
2023-10-23T14:17:05.112Z,9.50
2023-10-23T14:22:07.434Z,7.60
2023-10-23T14:27:10.640Z,11.00
2023-10-23T14:32:13.299Z,8.70
2023-10-23T14:37:15.457Z,7.20
2023-10-23T14:42:17.885Z,12.70
2023-10-23T14:47:20.217Z,10.50
2023-10-23T14:52:22.623Z,11.00
2023-10-23T14:57:24.918Z,10.80
2023-10-23T15:02:28.986Z,10.80
2023-10-23T15:07:31.390Z,14.00
2023-10-23T15:12:33.778Z,11.70
2023-10-23T15:17:36.159Z,10.90
2023-10-23T15:22:38.687Z,14.10
2023-10-23T15:27:41.727Z,10.50
2023-10-23T15:32:44.039Z,13.20
2023-10-23T15:37:46.868Z,13.70
2023-10-23T15:42:49.252Z,24.40
2023-10-23T15:47:51.724Z,21.00
2023-10-23T15:52:54.494Z,17.20
2023-10-23T15:57:58.082Z,25.00
2023-10-23T16:03:01.256Z,20.10
2023-10-23T16:08:06.220Z,21.60
2023-10-23T16:13:09.018Z,15.10
2023-10-23T16:18:13.049Z,22.50
2023-10-23T16:23:15.671Z,23.90
2023-10-23T16:28:18.290Z,20.30
2023-10-23T16:33:32.586Z,27.40
2023-10-23T16:38:35.319Z,28.80
2023-10-23T16:43:41.692Z,34.00
2023-10-23T16:48:46.600Z,40.60
2023-10-23T16:53:51.942Z,39.80
2023-10-23T16:58:54.695Z,42.40
2023-10-23T17:03:57.485Z,46.00
2023-10-23T17:08:59.955Z,49.20
2023-10-23T17:14:02.260Z,46.00
2023-10-23T17:19:06.632Z,46.70
2023-10-23T17:24:09.698Z,53.40
2023-10-23T17:29:12.395Z,47.20
2023-10-23T17:34:15.065Z,80.40
2023-10-23T17:39:17.838Z,76.90
2023-10-23T17:44:22.000Z,47.50
2023-10-23T17:49:27.064Z,51.20
2023-10-23T17:54:29.721Z,52.00
2023-10-23T17:59:38.077Z,76.40
2023-10-23T18:04:43.415Z,77.60
2023-10-23T18:09:46.441Z,56.50
2023-10-23T18:14:52.775Z,64.90
2023-10-23T18:20:01.325Z,42.10
2023-10-23T18:25:22.483Z,56.70
2023-10-23T18:30:26.865Z,59.10
2023-10-23T18:35:30.798Z,59.40
2023-10-23T18:40:40.875Z,60.90
2023-10-23T18:45:44.967Z,63.20
2023-10-23T18:50:49.613Z,73.10
2023-10-23T18:55:52.371Z,73.60
2023-10-23T19:00:55.836Z,79.00
2023-10-23T19:07:13.221Z,89.10
2023-10-23T19:13:35.637Z,88.00
2023-10-23T19:19:58.646Z,97.50
2023-10-23T19:25:44.452Z,91.90
2023-10-23T19:30:51.489Z,96.30
2023-10-23T19:36:02.706Z,93.20
2023-10-23T19:41:52.068Z,64.90
2023-10-23T19:47:54.187Z,63.20
2023-10-23T19:54:37.574Z,64.10
2023-10-23T20:00:52.821Z,73.40
2023-10-23T20:07:15.214Z,82.50
2023-10-23T20:12:38.882Z,80.00
2023-10-23T20:17:45.711Z,84.20
2023-10-23T20:23:08.196Z,92.10
2023-10-23T20:28:11.296Z,88.20
2023-10-23T20:33:13.838Z,64.30
2023-10-23T20:38:37.186Z,58.40
2023-10-23T20:43:46.628Z,58.00
2023-10-23T20:49:17.461Z,67.50
2023-10-23T20:54:30.246Z,57.60
2023-10-23T21:04:37.393Z,70.20
2023-10-23T21:09:42.365Z,67.10
2023-10-23T21:14:53.730Z,69.60
2023-10-23T21:20:00.146Z,86.70
2023-10-23T21:30:08.156Z,64.70
2023-10-23T21:35:11.810Z,59.50
2023-10-23T21:40:14.367Z,59.00
2023-10-23T21:45:17.221Z,47.60
2023-10-23T21:50:19.841Z,53.00
2023-10-23T21:55:24.787Z,55.40
2023-10-23T22:00:32.229Z,49.30
2023-10-23T22:05:34.900Z,50.20
2023-10-23T22:10:37.384Z,57.70
2023-10-23T22:15:40.159Z,58.30
2023-10-23T22:20:42.734Z,54.70
2023-10-23T22:25:45.180Z,54.10
2023-10-23T22:31:47.914Z,61.60
2023-10-23T22:38:02.877Z,60.30
2023-10-23T22:42:22.105Z,57.90
2023-10-23T22:47:24.686Z,50.20
2023-10-23T22:52:28.007Z,51.80
2023-10-23T22:57:40.904Z,57.50
2023-10-23T23:02:44.035Z,56.30
2023-10-23T23:07:55.711Z,52.70
2023-10-23T23:13:05.142Z,56.40
2023-10-23T23:18:08.653Z,51.00
2023-10-23T23:23:10.937Z,47.00
2023-10-23T23:28:17.274Z,57.90
2023-10-23T23:33:19.813Z,47.60
2023-10-23T23:38:25.574Z,53.00
2023-10-23T23:43:48.951Z,46.10
2023-10-23T23:49:08.105Z,55.40
2023-10-23T23:54:14.851Z,47.40
2023-10-23T23:59:17.400Z,51.40
